Time;durP1;ratioP1;P1;durP2;ratioP2;P2;SDS_P1;SDS_P2;PMS_P1;PMS_P2;Temp;Humidity;BMP_temperature;BMP_pressure;BME280_temperature;BME280_humidity;BME280_pressure;Samples;Min_cycle;Max_cycle;Signal;HPM_P1;HPM_P2
2021/10/10 00:00:57;;;;;;;10.35;5.58;;;;;;;6.93;48.54;101781.55;1756403;81;21041;-69
2021/10/10 00:03:24;;;;;;;10.05;4.87;;;;;;;6.98;48.21;101783.08;1763461;81;21785;-69
2021/10/10 00:05:50;;;;;;;7.65;4.87;;;;;;;7.03;48.12;101778.94;1742945;81;21007;-69
2021/10/10 00:08:17;;;;;;;11.28;5.15;;;;;;;7.04;48.38;101780.17;1761272;81;20944;-69
2021/10/10 00:10:44;;;;;;;7.30;4.62;;;;;;;7.07;48.41;101776.59;1773265;81;20999;-69
2021/10/10 00:13:11;;;;;;;8.95;4.97;;;;;;;7.08;47.83;101780.46;1747377;81;21442;-69
2021/10/10 00:15:37;;;;;;;10.28;4.65;;;;;;;7.09;47.65;101773.43;1768123;81;22778;-70
2021/10/10 00:18:04;;;;;;;9.08;4.80;;;;;;;7.10;47.47;101771.19;1748021;81;20994;-69
2021/10/10 00:20:30;;;;;;;8.55;4.37;;;;;;;7.12;47.45;101773.29;1756024;81;21117;-69
2021/10/10 00:22:57;;;;;;;7.92;4.58;;;;;;;7.12;47.08;101768.89;1752789;81;20999;-69
2021/10/10 00:25:24;;;;;;;8.13;4.40;;;;;;;7.13;46.87;101769.28;1750971;81;21101;-69
2021/10/10 00:27:50;;;;;;;9.65;4.72;;;;;;;7.16;46.76;101769.63;1742991;81;21828;-69
2021/10/10 00:30:18;;;;;;;8.93;4.50;;;;;;;7.16;46.72;101769.17;1753082;81;20982;-69
2021/10/10 00:32:45;;;;;;;6.37;4.37;;;;;;;7.17;46.71;101768.25;1756591;81;21474;-69
2021/10/10 00:35:12;;;;;;;6.85;4.50;;;;;;;7.18;46.90;101771.27;1763694;80;20929;-69
2021/10/10 00:37:38;;;;;;;11.05;5.00;;;;;;;7.18;47.23;101774.36;1775590;80;21464;-68
2021/10/10 00:40:06;;;;;;;9.15;4.67;;;;;;;7.17;46.60;101776.59;1770148;80;22909;-69
2021/10/10 00:42:33;;;;;;;7.35;4.40;;;;;;;7.19;46.30;101774.75;1729912;81;21474;-68
2021/10/10 00:44:59;;;;;;;8.30;4.47;;;;;;;7.22;46.12;101771.98;1743126;81;20960;-68
2021/10/10 00:47:26;;;;;;;8.10;4.60;;;;;;;7.25;46.03;101771.86;1738962;81;20996;-68
2021/10/10 00:49:53;;;;;;;7.42;4.60;;;;;;;7.27;45.50;101770.02;1753105;81;21035;-68
2021/10/10 00:52:20;;;;;;;9.08;4.72;;;;;;;7.31;45.25;101774.20;1734174;81;21891;-69
2021/10/10 00:54:48;;;;;;;12.13;5.08;;;;;;;7.34;45.30;101770.16;1738755;81;20944;-69
2021/10/10 00:57:15;;;;;;;7.95;4.55;;;;;;;7.35;45.29;101767.91;1735669;81;21450;-68
2021/10/10 00:59:46;;;;;;;8.98;4.70;;;;;;;7.36;45.41;101768.77;1751282;81;21097;-69
2021/10/10 01:02:14;;;;;;;10.23;4.70;;;;;;;7.36;45.32;101767.45;1741139;81;21055;-69
2021/10/10 01:04:42;;;;;;;8.93;4.10;;;;;;;7.34;45.84;101768.84;1768719;81;21787;-69
2021/10/10 01:07:09;;;;;;;7.90;4.33;;;;;;;7.31;46.05;101772.89;1748222;81;21003;-68
2021/10/10 01:09:36;;;;;;;9.20;4.40;;;;;;;7.29;45.78;101772.57;1770809;81;21042;-68
2021/10/10 01:12:07;;;;;;;9.53;4.70;;;;;;;7.28;45.83;101781.38;1695790;82;21019;-69
2021/10/10 01:14:34;;;;;;;6.80;4.15;;;;;;;7.27;45.90;101777.91;1740907;81;21534;-71
2021/10/10 01:17:01;;;;;;;6.53;4.33;;;;;;;7.26;45.56;101781.45;1754244;81;21860;-69
2021/10/10 01:19:31;;;;;;;9.45;4.33;;;;;;;7.23;45.94;101780.25;1769063;81;20927;-68
2021/10/10 01:21:59;;;;;;;7.15;4.20;;;;;;;7.21;46.13;101783.41;1770752;81;20956;-68
2021/10/10 01:24:26;;;;;;;9.80;4.12;;;;;;;7.18;46.59;101783.09;1767790;81;20991;-69
2021/10/10 01:26:53;;;;;;;7.90;4.30;;;;;;;7.17;46.92;101780.53;1746956;81;21437;-69
2021/10/10 01:29:19;;;;;;;9.00;4.50;;;;;;;7.15;47.05;101779.75;1743678;81;21819;-70
2021/10/10 01:31:46;;;;;;;10.35;4.80;;;;;;;7.11;46.86;101781.63;1762466;81;21035;-69
2021/10/10 01:34:12;;;;;;;9.85;4.33;;;;;;;7.08;46.59;101779.15;1740153;82;21144;-68
2021/10/10 01:36:39;;;;;;;9.15;4.70;;;;;;;7.04;46.85;101776.23;1751878;81;20939;-68
2021/10/10 01:39:06;;;;;;;6.90;4.22;;;;;;;7.02;47.09;101778.55;1754119;81;20980;-68
2021/10/10 01:41:34;;;;;;;8.18;4.50;;;;;;;6.97;47.42;101780.06;1768650;81;22676;-69
2021/10/10 01:44:00;;;;;;;8.28;4.70;;;;;;;6.93;47.43;101774.52;1745787;81;20948;-69
2021/10/10 01:46:26;;;;;;;8.18;4.50;;;;;;;6.91;47.62;101781.63;1754196;81;21007;-69
2021/10/10 01:48:53;;;;;;;7.70;4.58;;;;;;;6.88;47.46;101778.67;1759557;81;21027;-68
2021/10/10 01:51:19;;;;;;;7.30;4.40;;;;;;;6.85;47.92;101791.94;1739406;82;20943;-68
2021/10/10 01:53:46;;;;;;;9.03;4.40;;;;;;;6.82;47.94;101786.80;1714302;82;22200;-68
2021/10/10 01:56:12;;;;;;;7.70;4.62;;;;;;;6.78;48.22;101781.28;1745219;81;21557;-68
2021/10/10 01:58:39;;;;;;;10.48;4.58;;;;;;;6.76;48.25;101778.34;1713185;81;20979;-68
2021/10/10 02:01:05;;;;;;;7.95;4.67;;;;;;;6.73;48.64;101779.75;1746412;81;20987;-68
2021/10/10 02:03:32;;;;;;;9.00;4.72;;;;;;;6.69;48.38;101777.72;1818610;78;21551;-69
2021/10/10 02:05:59;;;;;;;12.58;4.53;;;;;;;6.65;48.62;101774.80;1810817;77;21687;-69
2021/10/10 02:08:26;;;;;;;8.43;4.50;;;;;;;6.65;48.66;101775.27;1790301;78;20991;-70
2021/10/10 02:10:54;;;;;;;8.50;4.78;;;;;;;6.63;49.00;101781.90;1789089;80;21323;-69
2021/10/10 02:13:20;;;;;;;7.85;4.60;;;;;;;6.60;49.63;101784.66;1789079;78;20953;-68
2021/10/10 02:15:48;;;;;;;9.20;4.40;;;;;;;6.54;49.90;101777.02;1791594;78;21378;-70
2021/10/10 02:18:14;;;;;;;8.68;4.00;;;;;;;6.49;50.13;101780.30;1797217;78;22210;-69
2021/10/10 02:20:41;;;;;;;8.83;4.95;;;;;;;6.46;50.16;101777.78;1819362;78;21395;-68
2021/10/10 02:23:08;;;;;;;9.65;4.53;;;;;;;6.41;50.28;101774.50;1818789;78;20952;-69
2021/10/10 02:25:36;;;;;;;7.80;4.62;;;;;;;6.38;50.38;101770.69;1788743;79;20964;-68
2021/10/10 02:28:03;;;;;;;9.20;4.70;;;;;;;6.34;50.65;101773.02;1805727;78;21034;-68
2021/10/10 02:30:29;;;;;;;7.17;4.17;;;;;;;6.28;50.75;101768.42;1795604;78;21765;-69
2021/10/10 02:32:56;;;;;;;7.60;4.70;;;;;;;6.24;50.93;101772.53;1820109;78;21028;-68
2021/10/10 02:35:22;;;;;;;7.92;4.83;;;;;;;6.18;51.13;101774.09;1819931;78;21018;-68
2021/10/10 02:37:49;;;;;;;9.23;4.80;;;;;;;6.10;51.29;101771.77;1813945;78;20990;-69
2021/10/10 02:40:16;;;;;;;8.60;4.83;;;;;;;6.06;51.36;101777.17;1802558;78;21037;-68
2021/10/10 02:42:42;;;;;;;10.48;4.90;;;;;;;5.99;51.64;101781.81;1811042;78;22803;-68
2021/10/10 02:45:09;;;;;;;8.68;4.90;;;;;;;5.91;51.95;101783.87;1811813;78;20963;-68
2021/10/10 02:47:36;;;;;;;8.75;4.72;;;;;;;5.82;52.38;101778.93;1779032;80;21031;-69
2021/10/10 02:50:04;;;;;;;10.38;5.00;;;;;;;5.72;52.75;101779.27;1734428;81;21058;-69
2021/10/10 02:52:31;;;;;;;7.78;5.00;;;;;;;5.64;53.02;101774.76;1754003;81;21138;-69
2021/10/10 02:54:57;;;;;;;9.38;5.05;;;;;;;5.57;52.96;101778.50;1747314;82;21771;-68
2021/10/10 02:57:24;;;;;;;9.60;5.08;;;;;;;5.54;52.72;101777.31;1701687;83;21026;-69
2021/10/10 02:59:50;;;;;;;7.35;4.55;;;;;;;5.53;52.86;101773.44;1753997;81;20959;-69
2021/10/10 03:02:16;;;;;;;6.78;4.47;;;;;;;5.50;52.95;101780.08;1770970;81;20944;-68
2021/10/10 03:04:43;;;;;;;9.30;4.78;;;;;;;5.46;52.86;101781.97;1770070;81;20990;-68
2021/10/10 03:07:10;;;;;;;7.60;4.97;;;;;;;5.44;52.87;101784.65;1750168;81;21760;-68
2021/10/10 03:09:36;;;;;;;10.50;5.30;;;;;;;5.43;52.76;101784.71;1743949;81;21007;-69
2021/10/10 03:12:03;;;;;;;7.60;4.87;;;;;;;5.43;52.86;101778.16;1768750;81;20981;-69
2021/10/10 03:14:30;;;;;;;8.98;4.80;;;;;;;5.40;52.83;101781.75;1770076;81;20979;-69
2021/10/10 03:16:56;;;;;;;10.70;5.10;;;;;;;5.39;52.98;101783.09;1755511;81;21047;-68
2021/10/10 03:19:23;;;;;;;9.33;4.75;;;;;;;5.35;52.79;101787.59;1742356;81;22266;-69
2021/10/10 03:21:49;;;;;;;9.73;5.03;;;;;;;5.31;52.67;101781.22;1757849;81;21013;-68
2021/10/10 03:24:16;;;;;;;8.58;5.22;;;;;;;5.32;52.54;101777.69;1770459;81;20972;-68
2021/10/10 03:26:42;;;;;;;9.75;5.40;;;;;;;5.31;52.75;101773.36;1744407;81;21011;-68
2021/10/10 03:29:09;;;;;;;7.70;5.08;;;;;;;5.25;52.91;101768.33;1758651;81;21354;-68
2021/10/10 03:31:36;;;;;;;11.68;5.50;;;;;;;5.20;52.62;101767.61;1752349;81;21684;-68
2021/10/10 03:34:02;;;;;;;14.58;4.95;;;;;;;5.16;52.78;101771.66;1770509;81;21023;-68
2021/10/10 03:36:29;;;;;;;8.85;4.92;;;;;;;5.14;52.44;101768.25;1751781;81;21003;-68
2021/10/10 03:38:55;;;;;;;8.50;4.78;;;;;;;5.17;52.55;101768.59;1751481;81;20968;-70
2021/10/10 03:41:21;;;;;;;8.43;5.30;;;;;;;5.17;52.55;101765.97;1774974;80;20948;-69
2021/10/10 03:43:48;;;;;;;9.98;5.47;;;;;;;5.16;52.67;101770.35;1740878;80;22597;-69
2021/10/10 03:46:14;;;;;;;9.90;5.33;;;;;;;5.12;52.73;101768.76;1764025;80;21095;-69
2021/10/10 03:48:41;;;;;;;9.85;4.92;;;;;;;5.11;52.73;101767.02;1731231;81;21364;-70
2021/10/10 03:51:07;;;;;;;9.88;5.08;;;;;;;5.10;53.02;101769.70;1732442;81;21063;-69
2021/10/10 03:56:18;;;;;;;7.55;5.28;;;;;;;4.92;53.41;101771.63;1743949;82;22497;-69
2021/10/10 03:58:44;;;;;;;14.07;5.22;;;;;;;4.78;53.72;101773.41;1753939;80;21019;-69
2021/10/10 04:01:11;;;;;;;7.90;5.00;;;;;;;4.69;53.87;101779.80;1756666;80;21103;-69
2021/10/10 04:03:37;;;;;;;7.28;4.95;;;;;;;4.63;53.92;101777.82;1780019;80;21019;-69
2021/10/10 04:06:04;;;;;;;9.43;5.17;;;;;;;4.58;54.02;101780.15;1736093;81;20972;-70
2021/10/10 04:08:30;;;;;;;13.40;5.20;;;;;;;4.52;54.32;101779.02;1764327;81;22898;-69
2021/10/10 04:10:58;;;;;;;8.18;5.12;;;;;;;4.48;54.60;101785.27;1765282;81;20943;-68
2021/10/10 04:13:24;;;;;;;8.65;4.87;;;;;;;4.41;54.84;101781.12;1765303;81;20975;-70
2021/10/10 04:15:51;;;;;;;9.68;5.47;;;;;;;4.35;55.07;101780.03;1764861;81;20996;-69
2021/10/10 04:18:17;;;;;;;8.75;5.03;;;;;;;4.27;55.40;101781.57;1751920;81;20924;-69
2021/10/10 04:20:43;;;;;;;7.87;5.37;;;;;;;4.16;55.59;101779.73;1754540;81;22180;-69
2021/10/10 04:23:10;;;;;;;7.67;4.80;;;;;;;4.09;55.91;101790.42;1758449;81;21403;-70
2021/10/10 04:25:36;;;;;;;7.33;4.85;;;;;;;4.02;56.14;101784.05;1736469;81;21034;-69
2021/10/10 04:28:03;;;;;;;7.58;4.60;;;;;;;3.99;56.56;101784.61;1745812;81;21038;-69
2021/10/10 04:30:29;;;;;;;9.65;5.10;;;;;;;3.95;56.89;101783.82;1735659;81;20991;-69
2021/10/10 04:32:56;;;;;;;9.20;5.03;;;;;;;3.92;57.11;101782.61;1735243;81;22202;-70
2021/10/10 04:35:22;;;;;;;9.70;4.53;;;;;;;3.90;57.31;101790.96;1737073;81;21286;-69
2021/10/10 04:37:49;;;;;;;10.75;5.05;;;;;;;3.89;57.46;101784.47;1715863;81;21062;-69
2021/10/10 04:40:15;;;;;;;10.35;4.92;;;;;;;3.89;57.60;101790.55;1732259;81;21020;-70
2021/10/10 04:42:42;;;;;;;9.00;5.10;;;;;;;3.90;57.71;101780.95;1729782;81;21034;-69
2021/10/10 04:45:09;;;;;;;7.05;5.00;;;;;;;3.90;57.83;101780.50;1730134;81;21509;-69
2021/10/10 04:47:36;;;;;;;9.70;4.92;;;;;;;3.90;57.96;101788.34;1732300;81;20971;-70
2021/10/10 04:50:03;;;;;;;8.10;5.00;;;;;;;3.91;58.07;101785.28;1744592;81;21059;-71
2021/10/10 04:52:31;;;;;;;10.82;5.35;;;;;;;3.94;58.13;101796.49;1734739;81;21063;-69
2021/10/10 04:54:57;;;;;;;9.23;5.25;;;;;;;3.98;58.08;101792.05;1752158;81;21054;-69
2021/10/10 04:57:24;;;;;;;9.00;5.15;;;;;;;4.01;58.04;101791.50;1746409;81;21804;-69
2021/10/10 04:59:51;;;;;;;11.15;4.70;;;;;;;4.07;57.93;101791.78;1745426;81;21020;-69
2021/10/10 05:02:21;;;;;;;10.25;6.22;;;;;;;4.12;57.96;101790.32;1729837;81;21015;-69
2021/10/10 05:04:49;;;;;;;10.43;5.00;;;;;;;4.18;57.85;101792.77;1710803;81;21462;-70
2021/10/10 05:07:16;;;;;;;8.65;5.05;;;;;;;4.26;57.71;101788.16;1742825;81;21008;-69
2021/10/10 05:09:44;;;;;;;8.38;4.75;;;;;;;4.33;57.62;101794.03;1731194;81;20983;-69
2021/10/10 05:12:13;;;;;;;11.05;4.35;;;;;;;4.40;57.49;101793.80;1733896;81;21386;-69
2021/10/10 05:14:42;;;;;;;9.15;4.80;;;;;;;4.50;57.12;101792.61;1738814;81;21103;-69
2021/10/10 05:17:08;;;;;;;8.18;5.05;;;;;;;4.59;56.99;101799.31;1733145;81;21015;-69
2021/10/10 05:19:35;;;;;;;7.60;4.75;;;;;;;4.74;56.25;101798.84;1756229;81;21365;-69
2021/10/10 05:22:02;;;;;;;9.53;5.42;;;;;;;4.94;55.46;101790.78;1752953;81;21850;-69
2021/10/10 05:24:29;;;;;;;9.08;5.22;;;;;;;5.14;55.07;101798.82;1708711;81;21378;-70
2021/10/10 05:26:55;;;;;;;8.75;5.12;;;;;;;5.30;54.55;101794.74;1738060;81;21480;-70
2021/10/10 05:29:21;;;;;;;7.45;5.22;;;;;;;5.43;54.18;101797.81;1746114;81;21051;-74
2021/10/10 05:31:48;;;;;;;7.75;5.10;;;;;;;5.58;53.59;101797.70;1741924;81;20996;-71
2021/10/10 05:34:14;;;;;;;8.40;5.55;;;;;;;5.73;52.85;101797.16;1740073;81;21792;-72
2021/10/10 05:36:40;;;;;;;9.23;4.90;;;;;;;5.87;52.42;101804.05;1728160;82;20992;-71
2021/10/10 05:39:07;;;;;;;9.48;5.33;;;;;;;6.01;52.16;101799.66;1739694;81;21532;-75
2021/10/10 05:41:34;;;;;;;9.48;5.35;;;;;;;6.15;51.81;101803.91;1769867;81;21086;-70
2021/10/10 05:44:00;;;;;;;9.08;5.15;;;;;;;6.26;51.33;101803.03;1756261;81;21030;-71
2021/10/10 05:46:27;;;;;;;11.88;4.72;;;;;;;6.39;50.77;101810.45;1745888;81;21809;-71
2021/10/10 05:48:53;;;;;;;10.25;5.40;;;;;;;6.48;50.75;101811.41;1740941;81;21077;-72
2021/10/10 05:51:20;;;;;;;8.28;5.25;;;;;;;6.55;50.65;101812.39;1767339;81;20994;-72
2021/10/10 05:53:46;;;;;;;12.60;5.80;;;;;;;6.62;50.65;101810.38;1739641;81;21002;-70
2021/10/10 05:56:13;;;;;;;11.38;5.05;;;;;;;6.70;50.67;101812.70;1757830;81;21054;-71
2021/10/10 05:58:43;;;;;;;12.33;5.83;;;;;;;6.78;50.53;101808.00;1745105;81;21514;-71
2021/10/10 06:01:09;;;;;;;10.20;5.33;;;;;;;6.87;50.46;101811.57;1723699;82;21098;-70
2021/10/10 06:03:38;;;;;;;10.03;4.97;;;;;;;6.94;49.93;101811.69;1717189;82;21077;-70
2021/10/10 06:06:05;;;;;;;8.73;5.00;;;;;;;7.02;49.80;101813.55;1709750;83;21427;-71
2021/10/10 06:08:32;;;;;;;7.22;5.12;;;;;;;7.09;49.68;101813.69;1723497;82;20981;-70
2021/10/10 06:10:58;;;;;;;10.05;5.00;;;;;;;7.16;49.21;101823.50;1683666;84;22282;-71
2021/10/10 06:13:25;;;;;;;11.28;5.47;;;;;;;7.23;49.17;101820.13;1708830;84;21067;-73
2021/10/10 06:15:51;;;;;;;8.40;5.15;;;;;;;7.31;49.23;101824.61;1696720;83;21032;-73
2021/10/10 06:18:18;;;;;;;10.00;5.72;;;;;;;7.37;49.12;101825.67;1699596;84;21111;-71
2021/10/10 06:20:44;;;;;;;11.43;5.85;;;;;;;7.43;49.10;101824.95;1706709;82;21040;-71
2021/10/10 06:23:11;;;;;;;12.88;6.00;;;;;;;7.54;49.08;101831.52;1736908;82;21877;-72
2021/10/10 06:25:37;;;;;;;9.18;5.40;;;;;;;7.61;48.99;101820.64;1737445;82;21004;-71
2021/10/10 06:28:04;;;;;;;8.23;5.55;;;;;;;7.72;48.98;101822.36;1735717;82;21051;-71
2021/10/10 06:30:32;;;;;;;8.65;5.65;;;;;;;7.87;48.54;101818.18;1738505;82;21238;-70
2021/10/10 06:32:58;;;;;;;11.22;5.80;;;;;;;8.01;48.08;101815.80;1718136;82;21055;-71
2021/10/10 06:35:25;;;;;;;12.58;5.55;;;;;;;8.16;47.65;101814.68;1710009;82;22267;-72
2021/10/10 06:37:51;;;;;;;12.25;5.50;;;;;;;8.28;47.31;101811.47;1711153;82;21036;-72
2021/10/10 06:40:18;;;;;;;11.80;5.50;;;;;;;8.38;47.03;101806.19;1722359;81;21084;-71
2021/10/10 06:42:44;;;;;;;11.73;5.62;;;;;;;8.47;46.89;101812.34;1752021;81;20996;-71
2021/10/10 06:45:12;;;;;;;12.07;5.67;;;;;;;8.58;46.93;101808.72;1744264;81;20947;-72
2021/10/10 06:47:38;;;;;;;10.75;4.92;;;;;;;8.72;46.57;101806.75;1738048;81;22842;-69
2021/10/10 06:50:05;;;;;;;11.22;4.78;;;;;;;8.88;46.24;101806.87;1746865;81;20999;-69
2021/10/10 06:52:33;;;;;;;10.00;4.92;;;;;;;9.00;45.85;101798.81;1751695;81;21600;-70
2021/10/10 06:54:59;;;;;;;9.30;5.25;;;;;;;9.07;44.62;101808.09;1753295;81;21261;-71
2021/10/10 06:57:29;;;;;;;9.90;5.20;;;;;;;9.07;44.74;101808.97;1743245;81;20968;-71
2021/10/10 06:59:58;;;;;;;6.70;4.35;;;;;;;9.12;44.77;101805.63;1758071;81;22244;-72
2021/10/10 07:02:23;;;;;;;8.18;4.45;;;;;;;9.25;45.13;101805.84;1747589;81;21090;-72
2021/10/10 07:04:49;;;;;;;8.78;4.42;;;;;;;9.36;44.42;101808.81;1756025;81;20952;-71
2021/10/10 07:07:16;;;;;;;10.75;4.75;;;;;;;9.40;44.50;101807.70;1747545;81;21063;-72
2021/10/10 07:09:42;;;;;;;7.87;4.92;;;;;;;9.46;44.49;101813.14;1741886;81;21099;-71
2021/10/10 07:12:09;;;;;;;7.72;4.72;;;;;;;9.46;43.97;101810.51;1738943;81;22247;-71
2021/10/10 07:14:37;;;;;;;10.95;4.50;;;;;;;9.42;43.88;101804.98;1734580;82;20928;-71
2021/10/10 07:17:04;;;;;;;10.10;5.65;;;;;;;9.38;44.15;101806.09;1743886;81;21007;-71
2021/10/10 07:19:42;;;;;;;14.98;6.33;;;;;;;9.31;43.98;101798.95;1748855;81;21415;-70
2021/10/10 07:22:12;;;;;;;7.55;5.47;;;;;;;9.25;44.06;101797.94;1755481;81;20929;-71
2021/10/10 07:27:13;;;;;;;10.08;5.53;;;;;;;9.15;44.49;101790.96;1735978;81;21046;-72
2021/10/10 07:29:39;;;;;;;9.03;4.70;;;;;;;9.18;44.77;101785.55;1744635;81;21063;-71
2021/10/10 07:32:06;;;;;;;6.92;4.53;;;;;;;9.26;44.82;101782.97;1739084;81;20995;-71
2021/10/10 07:34:33;;;;;;;8.88;4.70;;;;;;;9.27;44.35;101786.02;1736837;81;21066;-71
2021/10/10 07:36:59;;;;;;;11.08;5.08;;;;;;;9.30;44.50;101781.43;1740210;81;21557;-70
2021/10/10 07:39:26;;;;;;;10.00;5.12;;;;;;;9.34;44.43;101786.91;1765847;80;20963;-71
2021/10/10 07:41:54;;;;;;;9.78;4.58;;;;;;;9.43;43.92;101784.27;1751497;80;21012;-72
2021/10/10 07:44:23;;;;;;;9.63;5.15;;;;;;;9.49;44.11;101782.64;1781992;80;20941;-71
2021/10/10 07:46:56;;;;;;;9.18;4.87;;;;;;;9.63;44.70;101775.31;1771035;80;20941;-72
2021/10/10 07:49:18;;;;;;;9.25;5.10;;;;;;;9.89;44.41;101777.88;1756394;80;22501;-71
2021/10/10 07:51:44;;;;;;;12.98;5.12;;;;;;;10.14;43.73;101776.09;1754420;80;21000;-72
2021/10/10 07:54:10;;;;;;;7.85;5.22;;;;;;;10.34;43.34;101784.25;1760108;80;20992;-73
2021/10/10 07:56:37;;;;;;;9.38;4.75;;;;;;;10.53;43.25;101783.13;1772200;80;21052;-73
2021/10/10 07:59:03;;;;;;;13.30;5.15;;;;;;;10.70;42.92;101785.25;1735397;81;21548;-71
2021/10/10 08:01:31;;;;;;;7.42;4.78;;;;;;;10.88;43.04;101787.69;1762523;80;20929;-72
2021/10/10 08:03:58;;;;;;;11.53;5.15;;;;;;;11.09;42.92;101790.02;1741027;80;20961;-72
2021/10/10 08:06:24;;;;;;;9.10;4.87;;;;;;;11.28;41.58;101798.56;1752140;80;21549;-73
2021/10/10 08:08:51;;;;;;;8.00;4.70;;;;;;;11.37;41.82;101795.36;1767558;80;21439;-73
2021/10/10 08:11:17;;;;;;;7.47;4.70;;;;;;;11.46;41.16;101787.34;1772347;80;21084;-72
2021/10/10 08:13:44;;;;;;;8.98;5.03;;;;;;;11.49;41.16;101795.13;1762981;80;22208;-72
2021/10/10 08:16:10;;;;;;;7.58;4.53;;;;;;;11.57;40.15;101798.12;1772049;80;21394;-72
2021/10/10 08:18:36;;;;;;;10.85;5.33;;;;;;;11.60;38.81;101790.50;1778683;80;20997;-69
2021/10/10 08:21:03;;;;;;;9.60;5.05;;;;;;;11.60;39.60;101797.11;1764753;80;21091;-71
2021/10/10 08:23:29;;;;;;;8.65;4.55;;;;;;;11.71;39.72;101805.23;1763707;80;20993;-72
2021/10/10 08:25:56;;;;;;;8.28;4.58;;;;;;;11.75;38.64;101801.45;1752934;80;21789;-71
2021/10/10 08:28:25;;;;;;;9.68;4.62;;;;;;;11.67;38.88;101816.94;1759689;80;21084;-72
2021/10/10 08:30:52;;;;;;;10.50;4.80;;;;;;;11.54;38.90;101815.52;1779377;80;21451;-73
2021/10/10 08:33:18;;;;;;;11.43;5.08;;;;;;;11.52;38.59;101808.62;1778382;80;21024;-71
2021/10/10 08:35:45;;;;;;;11.40;4.58;;;;;;;11.55;38.72;101810.61;1783568;80;21142;-72
2021/10/10 08:38:12;;;;;;;10.08;4.53;;;;;;;11.61;38.59;101804.10;1777719;80;22246;-72
2021/10/10 08:40:38;;;;;;;6.30;4.22;;;;;;;11.66;38.41;101806.83;1766633;80;21078;-72
2021/10/10 08:43:06;;;;;;;8.75;4.60;;;;;;;11.68;37.78;101803.64;1695141;81;21027;-72
2021/10/10 08:45:33;;;;;;;8.08;4.70;;;;;;;11.63;37.78;101800.88;1733553;81;21018;-75
2021/10/10 08:47:59;;;;;;;6.75;4.70;;;;;;;11.55;37.72;101796.05;1746854;81;21542;-74
2021/10/10 08:50:28;;;;;;;14.90;5.50;;;;;;;11.53;37.85;101797.95;1741292;81;23023;-74
2021/10/10 08:52:58;;;;;;;11.57;4.95;;;;;;;11.59;38.94;101794.09;1743454;80;21105;-74
2021/10/10 08:55:26;;;;;;;9.40;4.70;;;;;;;11.70;37.90;101788.98;1752989;81;21425;-72
2021/10/10 08:57:53;;;;;;;10.00;4.45;;;;;;;11.82;37.82;101784.75;1743276;81;21083;-75
2021/10/10 09:00:29;;;;;;;8.90;5.28;;;;;;;11.81;37.96;101790.52;1739553;81;21330;-75
2021/10/10 09:02:51;;;;;;;7.70;4.50;;;;;;;11.91;38.36;101785.50;1745522;81;21849;-73
2021/10/10 09:05:18;;;;;;;8.05;5.12;;;;;;;12.06;38.63;101791.62;1740673;81;21363;-73
2021/10/10 09:07:44;;;;;;;10.30;4.75;;;;;;;12.19;38.05;101785.47;1745071;81;21050;-72
2021/10/10 09:10:28;;;;;;;7.95;4.70;;;;;;;12.31;38.42;101786.00;1734732;81;21031;-73
2021/10/10 09:13:07;;;;;;;;;;;;;;;12.52;37.87;101785.08;1747121;81;21007;-72
2021/10/10 09:15:36;;;;;;;8.13;4.20;;;;;;;12.72;37.78;101784.25;1748119;81;22209;-72
2021/10/10 09:18:04;;;;;;;10.75;4.70;;;;;;;12.88;36.67;101775.66;1745733;81;21059;-70
2021/10/10 09:20:40;;;;;;;7.50;4.65;;;;;;;12.99;35.72;101775.79;1760351;81;21067;-73
2021/10/10 09:23:10;;;;;;;8.45;4.58;;;;;;;13.05;35.41;101784.67;1747903;81;20982;-70
2021/10/10 09:25:36;;;;;;;8.75;4.42;;;;;;;13.16;35.44;101779.97;1707785;81;21097;-70
2021/10/10 09:28:22;;;;;;;10.85;5.17;;;;;;;13.25;35.07;101782.50;1718348;81;21816;-71
2021/10/10 09:30:54;;;;;;;8.23;4.58;;;;;;;13.22;34.20;101780.92;1738787;81;21003;-71
2021/10/10 09:33:44;;;;;;;6.72;4.08;;;;;;;13.26;35.32;101781.55;1753373;81;21027;-70
2021/10/10 09:36:29;;;;;;;6.90;4.80;;;;;;;13.43;35.15;101781.25;1733930;81;21030;-70
2021/10/10 09:39:02;;;;;;;14.50;5.28;;;;;;;13.59;34.82;101773.05;1733403;82;21014;-71
2021/10/10 09:41:42;;;;;;;11.60;5.25;;;;;;;13.70;34.81;101770.48;1739199;81;21900;-69
2021/10/10 09:44:30;;;;;;;7.17;4.95;;;;;;;13.79;34.19;101770.31;1744276;81;21038;-69
2021/10/10 09:46:58;;;;;;;12.10;4.87;;;;;;;13.89;34.66;101768.70;1734891;81;21079;-71
2021/10/10 09:49:34;;;;;;;7.78;5.00;;;;;;;14.16;34.42;101759.24;1746046;81;21018;-69
2021/10/10 09:52:15;;;;;;;10.72;4.90;;;;;;;14.48;34.67;101766.25;1736514;81;21015;-70
2021/10/10 09:54:59;;;;;;;13.28;5.30;;;;;;;14.77;33.38;101768.92;1736164;81;21730;-73
2021/10/10 09:57:27;;;;;;;8.83;5.30;;;;;;;14.89;31.98;101763.16;1746911;81;20991;-72
2021/10/10 09:59:55;;;;;;;14.18;5.47;;;;;;;15.00;31.65;101759.67;1739672;81;21493;-73
2021/10/10 10:02:40;;;;;;;7.45;4.83;;;;;;;15.07;32.31;101763.09;1761950;80;21376;-73
2021/10/10 10:05:08;;;;;;;11.70;5.00;;;;;;;15.26;32.71;101757.69;1727469;81;21039;-72
2021/10/10 10:07:34;;;;;;;8.43;5.55;;;;;;;15.44;31.28;101757.11;1745863;81;22218;-74
2021/10/10 10:10:03;;;;;;;11.05;5.35;;;;;;;15.52;31.65;101753.83;1736755;81;21047;-71
2021/10/10 10:12:30;;;;;;;9.58;4.53;;;;;;;15.63;31.26;101760.55;1735209;81;21494;-69
2021/10/10 10:15:01;;;;;;;5.60;4.15;;;;;;;15.67;30.99;101754.48;1746213;81;20992;-70
2021/10/10 10:17:28;;;;;;;10.48;4.65;;;;;;;15.61;31.28;101758.95;1764429;80;20944;-70
2021/10/10 10:19:58;;;;;;;5.87;4.12;;;;;;;15.53;31.13;101766.17;1769613;80;22173;-69
2021/10/10 10:22:26;;;;;;;9.65;4.58;;;;;;;15.48;30.45;101748.39;1706598;83;21469;-68
2021/10/10 10:24:52;;;;;;;10.78;3.83;;;;;;;15.26;30.54;101759.02;1738367;81;20944;-72
2021/10/10 10:27:21;;;;;;;8.63;4.22;;;;;;;15.13;31.12;101759.09;1738764;81;21168;-71
2021/10/10 10:29:50;;;;;;;5.78;3.80;;;;;;;15.06;31.62;101762.73;1731100;81;21003;-69
2021/10/10 10:32:17;;;;;;;7.87;4.45;;;;;;;15.04;31.13;101759.31;1743792;81;21824;-67
2021/10/10 10:35:07;;;;;;;8.88;4.15;;;;;;;14.89;31.70;101769.32;1724403;81;21055;-66
2021/10/10 10:37:48;;;;;;;11.78;4.60;;;;;;;14.85;32.14;101767.84;1759014;79;20992;-68
2021/10/10 10:40:26;;;;;;;8.80;4.80;;;;;;;14.88;32.23;101775.61;1723034;81;21047;-68
2021/10/10 10:42:55;;;;;;;11.30;4.70;;;;;;;14.85;32.67;101779.80;1760528;81;21030;-68
2021/10/10 10:45:32;;;;;;;9.40;4.25;;;;;;;14.87;32.68;101769.92;1773595;81;22494;-68
2021/10/10 10:48:11;;;;;;;9.75;3.85;;;;;;;14.89;33.01;101775.13;1773682;81;20947;-70
2021/10/10 10:50:44;;;;;;;10.20;4.53;;;;;;;14.97;32.80;101776.73;1755190;81;21074;-70
2021/10/10 10:53:15;;;;;;;6.92;3.83;;;;;;;15.08;33.05;101775.91;1749423;79;21513;-69
2021/10/10 10:55:44;;;;;;;8.20;4.17;;;;;;;15.22;32.77;101772.19;1761661;79;21490;-69
2021/10/10 10:58:13;;;;;;;8.45;3.62;;;;;;;15.36;32.07;101767.51;1764887;81;21915;-69
2021/10/10 11:00:51;;;;;;;7.85;4.10;;;;;;;15.41;32.12;101766.65;1773868;81;21387;-69
2021/10/10 11:03:28;;;;;;;7.95;4.10;;;;;;;15.38;31.89;101767.38;1774014;81;20987;-68
2021/10/10 11:06:02;;;;;;;8.50;3.87;;;;;;;15.33;31.78;101767.72;1760401;81;20999;-68
2021/10/10 11:08:39;;;;;;;6.92;3.65;;;;;;;15.24;31.93;101760.45;1757211;81;21027;-67
2021/10/10 11:11:13;;;;;;;10.32;3.70;;;;;;;15.32;31.54;101762.04;1749931;81;21833;-68
2021/10/10 11:13:53;;;;;;;8.15;3.60;;;;;;;15.34;31.76;101760.09;1758193;81;20959;-69
2021/10/10 11:16:28;;;;;;;8.60;3.62;;;;;;;15.36;31.57;101760.00;1763897;81;21037;-69
2021/10/10 11:18:59;;;;;;;7.55;4.65;;;;;;;15.31;31.62;101756.35;1754540;80;21378;-71
2021/10/10 11:21:32;;;;;;;9.70;4.95;;;;;;;15.27;31.91;101752.25;1749811;81;20999;-69
2021/10/10 11:24:00;;;;;;;11.25;5.10;;;;;;;15.30;31.13;101752.48;1724621;82;22553;-69
2021/10/10 11:26:28;;;;;;;11.00;4.80;;;;;;;15.27;31.49;101748.73;1797616;78;21006;-77
2021/10/10 11:28:59;;;;;;;7.90;4.60;;;;;;;15.30;31.99;101750.66;1797323;78;21003;-71
2021/10/10 11:31:31;;;;;;;7.58;4.67;;;;;;;15.38;32.07;101745.60;1799187;78;21090;-71
2021/10/10 11:34:06;;;;;;;9.28;4.22;;;;;;;15.44;31.52;101743.80;1768640;80;20995;-71
2021/10/10 11:36:48;;;;;;;7.83;4.20;;;;;;;15.40;31.16;101746.32;1768677;80;21895;-70
2021/10/10 11:39:22;;;;;;;9.65;3.72;;;;;;;15.32;30.87;101742.07;1749573;81;21497;-72